Time;durP1;ratioP1;P1;durP2;ratioP2;P2;SDS_P1;SDS_P2;PMS_P1;PMS_P2;Temp;Humidity;BMP_temperature;BMP_pressure;BME280_temperature;BME280_humidity;BME280_pressure;Samples;Min_cycle;Max_cycle;Signal;HPM_P1;HPM_P2
2023/10/15 00:00:50;;;;;;;;;;;;;;;6.29;100.00;101568.59;4929541;29;19926;-81
2023/10/15 00:03:35;;;;;;;;;;;;;;;6.32;100.00;101563.28;4928888;29;21419;-81
2023/10/15 00:06:21;;;;;;;;;;;;;;;6.32;100.00;101584.31;4930926;29;19935;-81
2023/10/15 00:09:07;;;;;;;;;;;;;;;6.36;100.00;101586.03;4929112;29;19982;-81
2023/10/15 00:11:52;;;;;;;;;;;;;;;6.38;100.00;101567.59;4927878;29;19934;-81
2023/10/15 00:14:38;;;;;;;;;;;;;;;6.39;100.00;101567.53;4913760;29;19965;-80
2023/10/15 00:17:24;;;;;;;;;;;;;;;6.39;100.00;101564.91;4929939;28;19931;-80
2023/10/15 00:20:19;;;;;;;;;;;;;;;6.42;100.00;101578.94;4930699;28;19941;-80
2023/10/15 00:23:05;;;;;;;;;;;;;;;6.44;100.00;101563.97;4930133;29;19930;-80
2023/10/15 00:25:50;;;;;;;;;;;;;;;6.45;100.00;101573.59;4930286;29;19927;-80
2023/10/15 00:28:36;;;;;;;;;;;;;;;6.46;100.00;101570.97;4916772;29;20387;-79
2023/10/15 00:31:22;;;;;;;;;;;;;;;6.48;100.00;101557.78;4930811;28;19997;-80
2023/10/15 00:34:12;;;;;;;;;;;;;;;6.48;100.00;101565.69;4929998;28;19930;-81
2023/10/15 00:36:57;;;;;;;;;;;;;;;6.48;100.00;101574.44;4928327;29;19931;-80
2023/10/15 00:39:44;;;;;;;;;;;;;;;6.49;100.00;101580.56;4928825;29;20071;-81
2023/10/15 00:42:30;;;;;;;;;;;;;;;6.49;100.00;101597.19;4930422;28;19958;-81
2023/10/15 00:45:17;;;;;;;;;;;;;;;6.52;100.00;101601.53;4929772;29;19937;-80
2023/10/15 00:50:52;;;;;;;;;;;;;;;6.55;100.00;101585.72;4930640;28;19931;-80
2023/10/15 00:53:49;;;;;;;;;;;;;;;6.56;100.00;101579.56;4914992;29;19927;-80
2023/10/15 00:56:35;;;;;;;;;;;;;;;6.56;100.00;101587.47;4914794;29;19930;-81
2023/10/15 00:59:21;;;;;;;;;;;;;;;6.56;100.00;101587.47;4913049;29;19926;-81
2023/10/15 01:02:07;;;;;;;;;;;;;;;6.55;100.00;101584.84;4929305;29;19941;-80
2023/10/15 01:04:57;;;;;;;;;;;;;;;6.55;100.00;101577.84;4928517;29;19945;-81
2023/10/15 01:07:47;;;;;;;;;;;;;;;6.54;100.00;101577.84;4915586;29;19950;-80
2023/10/15 01:10:36;;;;;;;;;;;;;;;6.51;100.00;101581.41;4913099;29;19926;-81
2023/10/15 01:13:24;;;;;;;;;;;;;;;6.49;100.00;101586.69;4928551;29;20437;-81
2023/10/15 01:16:12;;;;;;;;;;;;;;;6.47;100.00;101583.22;4927734;29;19926;-80
2023/10/15 01:19:15;;;;;;;;;;;;;;;6.42;100.00;101573.66;4928001;29;20408;-81
2023/10/15 01:22:04;;;;;;;;;;;;;;;6.38;100.00;101572.84;4929292;28;19994;-81
2023/10/15 01:24:50;;;;;;;;;;;;;;;6.36;100.00;101575.50;4914014;29;19934;-81
2023/10/15 01:27:36;;;;;;;;;;;;;;;6.36;100.00;101564.97;4915226;28;19926;-81
2023/10/15 01:30:24;;;;;;;;;;;;;;;6.39;100.00;101569.31;4929427;29;20302;-80
2023/10/15 01:33:10;;;;;;;;;;;;;;;6.44;100.00;101570.13;4928010;29;19978;-82
2023/10/15 01:36:06;;;;;;;;;;;;;;;6.44;100.00;101571.88;4928702;28;19930;-81
2023/10/15 01:38:55;;;;;;;;;;;;;;;6.43;100.00;101572.78;4926940;29;20417;-81
2023/10/15 01:41:42;;;;;;;;;;;;;;;6.41;100.00;101582.44;4913934;29;19981;-82
2023/10/15 01:44:27;;;;;;;;;;;;;;;6.36;100.00;101578.13;4920134;29;19931;-81
2023/10/15 01:47:13;;;;;;;;;;;;;;;6.36;100.00;101586.03;4928149;29;19939;-82
2023/10/15 01:50:00;;;;;;;;;;;;;;;6.34;100.00;101602.72;4927893;29;19931;-82
2023/10/15 01:52:45;;;;;;;;;;;;;;;6.38;100.00;101600.00;4914881;29;19926;-78
2023/10/15 01:55:35;;;;;;;;;;;;;;;6.44;100.00;101590.28;4929287;29;19930;-80
2023/10/15 01:58:24;;;;;;;;;;;;;;;6.44;100.00;101577.13;4926022;29;20469;-80
2023/10/15 02:01:14;;;;;;;;;;;;;;;6.48;100.00;101576.22;4912220;29;19926;-80
2023/10/15 02:03:59;;;;;;;;;;;;;;;6.55;100.00;101584.84;4911702;29;20021;-81
2023/10/15 02:06:47;;;;;;;;;;;;;;;6.62;100.00;101586.47;4928431;29;19930;-81
2023/10/15 02:09:38;;;;;;;;;;;;;;;6.68;100.00;101589.00;4912990;29;19934;-80
2023/10/15 02:12:23;;;;;;;;;;;;;;;6.67;100.00;101600.44;4926010;29;19942;-81
2023/10/15 02:15:22;;;;;;;;;;;;;;;6.60;100.00;101609.31;4928626;28;21909;-80
2023/10/15 02:18:13;;;;;;;;;;;;;;;6.52;100.00;101602.44;4927882;29;19941;-81
2023/10/15 02:23:49;;;;;;;;;;;;;;;6.38;100.00;101604.41;4926862;29;20021;-80
2023/10/15 02:26:35;;;;;;;;;;;;;;;6.30;100.00;101625.56;4926935;29;20397;-80
2023/10/15 02:29:41;;;;;;;;;;;;;;;6.25;100.00;101622.13;4926253;29;21002;-82
2023/10/15 02:35:13;;;;;;;;;;;;;;;6.14;100.00;101616.19;4925373;28;20521;-81
2023/10/15 02:37:59;;;;;;;;;;;;;;;6.10;100.00;101616.22;4926761;29;20602;-81
2023/10/15 02:41:03;;;;;;;;;;;;;;;6.06;100.00;101609.25;4928303;28;19977;-82
2023/10/15 02:43:53;;;;;;;;;;;;;;;6.02;100.00;101611.91;4914787;29;19931;-82
2023/10/15 02:46:48;;;;;;;;;;;;;;;5.97;100.00;101604.97;4928238;28;19931;-81
2023/10/15 02:49:53;;;;;;;;;;;;;;;5.96;100.00;101611.13;4926381;29;20417;-82
2023/10/15 02:52:45;;;;;;;;;;;;;;;5.91;100.00;101602.44;4915226;29;20271;-82
2023/10/15 02:55:46;;;;;;;;;;;;;;;5.88;100.00;101602.44;4926036;29;20103;-82
2023/10/15 02:58:32;;;;;;;;;;;;;;;5.84;100.00;101609.50;4927728;29;19934;-82
2023/10/15 03:01:22;;;;;;;;;;;;;;;5.81;100.00;101612.19;4926413;28;20494;-82
2023/10/15 03:04:09;;;;;;;;;;;;;;;5.80;100.00;101614.84;4927456;29;19945;-82
2023/10/15 03:06:57;;;;;;;;;;;;;;;5.75;100.00;101620.16;4928082;29;20696;-82
2023/10/15 03:09:44;;;;;;;;;;;;;;;5.72;100.00;101622.81;4925171;29;20383;-82
2023/10/15 03:12:43;;;;;;;;;;;;;;;5.68;100.00;101618.50;4913140;29;19926;-82
2023/10/15 03:15:28;;;;;;;;;;;;;;;5.66;100.00;101615.03;4927164;28;19927;-82
2023/10/15 03:18:23;;;;;;;;;;;;;;;5.63;100.00;101615.03;4914365;29;20813;-82
2023/10/15 03:21:15;;;;;;;;;;;;;;;5.60;100.00;101615.94;4928429;28;20073;-82
2023/10/15 03:24:04;;;;;;;;;;;;;;;5.58;100.00;101623.00;4927034;29;20532;-82
2023/10/15 03:26:50;;;;;;;;;;;;;;;5.57;100.00;101632.63;4928829;28;19942;-82
2023/10/15 03:29:36;;;;;;;;;;;;;;;5.56;100.00;101641.38;4927467;29;20886;-82
2023/10/15 03:32:31;;;;;;;;;;;;;;;5.60;100.00;101646.63;4927667;29;20309;-82
2023/10/15 03:35:18;;;;;;;;;;;;;;;5.63;100.00;101639.56;4927444;29;19965;-82
2023/10/15 03:38:14;;;;;;;;;;;;;;;5.66;100.00;101628.16;4927295;29;19929;-82
2023/10/15 03:41:21;;;;;;;;;;;;;;;5.69;100.00;101617.59;4926072;29;19941;-82
2023/10/15 03:44:10;;;;;;;;;;;;;;;5.71;100.00;101618.44;4927985;28;20802;-82
2023/10/15 03:47:04;;;;;;;;;;;;;;;5.72;100.00;101625.44;4927324;29;19930;-82
2023/10/15 03:49:55;;;;;;;;;;;;;;;5.71;100.00;101635.09;4915353;29;20393;-82
2023/10/15 03:52:44;;;;;;;;;;;;;;;5.71;100.00;101650.84;4916977;29;20159;-81
2023/10/15 03:55:30;;;;;;;;;;;;;;;5.71;100.00;101642.09;4914890;29;19926;-80
2023/10/15 03:58:18;;;;;;;;;;;;;;;5.69;100.00;101663.16;4929114;29;19933;-80
2023/10/15 04:03:55;;;;;;;;;;;;;;;5.62;100.00;101631.69;4929340;29;20306;-80
2023/10/15 04:06:41;;;;;;;;;;;;;;;5.64;100.00;101643.94;4929813;29;19958;-80
2023/10/15 04:09:27;;;;;;;;;;;;;;;5.70;100.00;101638.59;4928434;29;19942;-79
2023/10/15 04:12:13;;;;;;;;;;;;;;;5.78;100.00;101635.88;4929445;29;20068;-79
2023/10/15 04:14:58;;;;;;;;;;;;;;;5.80;100.00;101633.22;4930092;29;19950;-78
2023/10/15 04:17:45;;;;;;;;;;;;;;;5.75;100.00;101643.81;4913886;29;19941;-79
2023/10/15 04:20:35;;;;;;;;;;;;;;;5.70;100.00;101646.50;4913936;29;19931;-79
2023/10/15 04:23:30;;;;;;;;;;;;;;;5.66;100.00;101662.31;4928876;29;20290;-79
2023/10/15 04:26:16;;;;;;;;;;;;;;;5.64;100.00;101672.84;4916812;29;19937;-79
2023/10/15 04:29:16;;;;;;;;;;;;;;;5.57;100.00;101669.41;4929876;29;20472;-77
2023/10/15 04:32:08;;;;;;;;;;;;;;;5.45;100.00;101661.66;4916221;29;19962;-79
2023/10/15 04:34:56;;;;;;;;;;;;;;;5.32;100.00;101662.69;4929377;29;19942;-79
2023/10/15 04:37:52;;;;;;;;;;;;;;;5.22;100.00;101651.41;4928741;29;19972;-79
2023/10/15 04:41:00;;;;;;;;;;;;;;;5.15;100.00;101658.47;4915233;29;19931;-78
2023/10/15 04:43:45;;;;;;;;;;;;;;;5.12;100.00;101661.13;4929738;29;20054;-78
2023/10/15 04:46:40;;;;;;;;;;;;;;;5.14;100.00;101648.84;4929225;28;19935;-78
2023/10/15 04:49:26;;;;;;;;;;;;;;;5.13;100.00;101653.22;4928368;29;20678;-78
2023/10/15 04:52:14;;;;;;;;;;;;;;;5.14;100.00;101643.59;4915251;29;20314;-79
2023/10/15 04:55:00;;;;;;;;;;;;;;;5.15;100.00;101632.22;4930173;28;19938;-78
2023/10/15 04:57:46;;;;;;;;;;;;;;;5.15;100.00;101634.84;4915979;29;19941;-79
2023/10/15 05:00:33;;;;;;;;;;;;;;;5.18;100.00;101632.19;4914320;29;19930;-79
2023/10/15 05:03:18;;;;;;;;;;;;;;;5.18;100.00;101629.56;4928057;28;19934;-79
2023/10/15 05:06:06;;;;;;;;;;;;;;;5.19;100.00;101636.56;4916834;29;19957;-79
2023/10/15 05:08:53;;;;;;;;;;;;;;;5.21;100.00;101649.66;4914302;29;19938;-78
2023/10/15 05:11:39;;;;;;;;;;;;;;;5.23;100.00;101658.41;4916031;29;19975;-79
2023/10/15 05:14:25;;;;;;;;;;;;;;;5.24;100.00;101674.09;4916617;28;20287;-79
2023/10/15 05:17:10;;;;;;;;;;;;;;;5.30;100.00;101696.84;4927913;29;20429;-79
2023/10/15 05:19:56;;;;;;;;;;;;;;;5.29;100.00;101695.09;4928257;29;19934;-78
2023/10/15 05:22:42;;;;;;;;;;;;;;;5.22;100.00;101696.91;4928348;29;19939;-76
2023/10/15 05:25:27;;;;;;;;;;;;;;;5.14;100.00;101680.34;4912236;29;19949;-76
2023/10/15 05:28:14;;;;;;;;;;;;;;;5.03;100.00;101649.81;4918575;29;19941;-77
2023/10/15 05:31:00;;;;;;;;;;;;;;;4.97;100.00;101651.63;4912787;29;20187;-77
2023/10/15 05:33:46;;;;;;;;;;;;;;;4.95;100.00;101658.66;4927641;29;19934;-77
2023/10/15 05:36:32;;;;;;;;;;;;;;;4.93;100.00;101645.53;4913210;29;19931;-77
2023/10/15 05:39:18;;;;;;;;;;;;;;;4.93;100.00;101642.03;4928028;29;20956;-78
2023/10/15 05:42:07;;;;;;;;;;;;;;;4.94;100.00;101643.78;4919206;29;19934;-78
2023/10/15 05:44:53;;;;;;;;;;;;;;;4.94;100.00;101649.91;4908357;29;19931;-78
2023/10/15 05:47:39;;;;;;;;;;;;;;;4.95;100.00;101654.25;4927239;29;19982;-78
2023/10/15 05:50:25;;;;;;;;;;;;;;;4.95;100.00;101656.88;4912793;28;19966;-78
2023/10/15 05:53:11;;;;;;;;;;;;;;;4.93;100.00;101666.53;4926333;29;19935;-78
2023/10/15 05:55:59;;;;;;;;;;;;;;;4.93;100.00;101679.66;4927129;29;19941;-78
2023/10/15 05:58:45;;;;;;;;;;;;;;;4.92;100.00;101683.16;4928954;28;19922;-77
2023/10/15 06:01:31;;;;;;;;;;;;;;;4.91;100.00;101675.31;4919779;28;19942;-78
2023/10/15 06:04:17;;;;;;;;;;;;;;;4.92;100.00;101674.41;4927540;29;19934;-78
2023/10/15 06:07:07;;;;;;;;;;;;;;;4.94;100.00;101672.63;4926471;29;19922;-77
2023/10/15 06:09:52;;;;;;;;;;;;;;;4.94;100.00;101664.75;4928435;29;19930;-78
2023/10/15 06:12:38;;;;;;;;;;;;;;;4.96;100.00;101657.78;4925263;29;19930;-78
2023/10/15 06:15:24;;;;;;;;;;;;;;;4.97;100.00;101665.59;4926516;29;20382;-77
2023/10/15 06:18:09;;;;;;;;;;;;;;;4.98;100.00;101684.88;4926051;29;20001;-77
2023/10/15 06:20:55;;;;;;;;;;;;;;;5.02;100.00;101671.69;4926581;29;19934;-78
2023/10/15 06:23:41;;;;;;;;;;;;;;;5.08;100.00;101667.28;4925393;29;19937;-78
2023/10/15 06:26:28;;;;;;;;;;;;;;;5.12;100.00;101684.75;4927081;28;20291;-77
2023/10/15 06:29:13;;;;;;;;;;;;;;;5.15;100.00;101661.09;4927518;29;19960;-77
2023/10/15 06:32:01;;;;;;;;;;;;;;;5.18;100.00;101673.31;4927133;29;19926;-77
2023/10/15 06:34:47;;;;;;;;;;;;;;;5.26;100.00;101690.75;4928800;28;19941;-78
2023/10/15 06:37:33;;;;;;;;;;;;;;;5.38;100.00;101681.88;4927165;28;19931;-78
2023/10/15 06:40:19;;;;;;;;;;;;;;;5.45;100.00;101701.03;4927328;29;19958;-78
2023/10/15 06:43:05;;;;;;;;;;;;;;;5.54;100.00;101710.59;4927935;28;19935;-79
2023/10/15 06:45:51;;;;;;;;;;;;;;;5.66;100.00;101717.50;4926631;29;21419;-77
2023/10/15 06:48:41;;;;;;;;;;;;;;;5.73;100.00;101716.53;4927666;29;19935;-78
2023/10/15 06:51:27;;;;;;;;;;;;;;;5.73;100.00;101715.66;4912777;29;20048;-77
2023/10/15 06:54:13;;;;;;;;;;;;;;;5.74;100.00;101720.91;4926437;29;19976;-78
2023/10/15 06:56:58;;;;;;;;;;;;;;;5.77;100.00;101734.00;4911686;29;19927;-79
2023/10/15 06:59:44;;;;;;;;;;;;;;;5.81;100.00;101733.09;4925278;29;20072;-78
2023/10/15 07:02:30;;;;;;;;;;;;;;;5.84;100.00;101737.44;4924946;28;19930;-79
2023/10/15 07:05:16;;;;;;;;;;;;;;;5.88;100.00;101746.16;4911775;29;19937;-79
2023/10/15 07:08:03;;;;;;;;;;;;;;;5.91;100.00;101754.00;4900779;29;19986;-78
2023/10/15 07:10:49;;;;;;;;;;;;;;;5.93;100.00;101760.09;4925890;29;19934;-78
2023/10/15 07:13:34;;;;;;;;;;;;;;;5.96;100.00;101753.06;4906663;29;19931;-79
2023/10/15 07:16:20;;;;;;;;;;;;;;;5.98;100.00;101761.81;4908283;29;19935;-79
2023/10/15 07:19:05;;;;;;;;;;;;;;;5.98;100.00;101761.81;4896987;29;19931;-78
2023/10/15 07:21:55;;;;;;;;;;;;;;;5.98;100.00;101764.44;4911636;29;19998;-78
2023/10/15 07:24:41;;;;;;;;;;;;;;;5.97;100.00;101761.81;4909361;29;21886;-78
2023/10/15 07:27:26;;;;;;;;;;;;;;;5.95;100.00;101772.34;4908306;29;20594;-78
2023/10/15 07:30:12;;;;;;;;;;;;;;;5.95;100.00;101774.97;4910849;29;20326;-78
2023/10/15 07:32:58;;;;;;;;;;;;;;;5.97;100.00;101778.47;4904952;29;19981;-78
2023/10/15 07:35:46;;;;;;;;;;;;;;;6.01;100.00;101781.94;4912159;28;19938;-79
2023/10/15 07:38:33;;;;;;;;;;;;;;;6.04;100.00;101779.28;4909495;29;19934;-78
2023/10/15 07:41:18;;;;;;;;;;;;;;;6.09;100.00;101788.00;4912601;28;20420;-78
2023/10/15 07:44:04;;;;;;;;;;;;;;;6.14;100.00;101789.72;4904116;29;20578;-78
2023/10/15 07:46:52;;;;;;;;;;;;;;;6.18;100.00;101802.81;4909202;29;19934;-79
2023/10/15 07:49:38;;;;;;;;;;;;;;;6.26;100.00;101794.81;4913163;29;20014;-79
2023/10/15 07:52:24;;;;;;;;;;;;;;;6.37;100.00;101802.56;4908868;29;20387;-78
2023/10/15 07:55:10;;;;;;;;;;;;;;;6.49;100.00;101802.41;4909654;29;19986;-78
2023/10/15 07:57:57;;;;;;;;;;;;;;;6.61;100.00;101817.19;4904358;29;20010;-79
2023/10/15 08:00:43;;;;;;;;;;;;;;;6.79;100.00;101830.97;4912381;28;19937;-78
2023/10/15 08:03:29;;;;;;;;;;;;;;;6.97;100.00;101852.69;4904755;29;19935;-78
2023/10/15 08:06:14;;;;;;;;;;;;;;;6.92;100.00;101860.66;4911280;28;19931;-78
2023/10/15 08:09:00;;;;;;;;;;;;;;;6.70;100.00;101853.00;4909430;29;19937;-78
2023/10/15 08:11:46;;;;;;;;;;;;;;;6.55;100.00;101827.78;4914430;29;19935;-78
2023/10/15 08:14:31;;;;;;;;;;;;;;;6.44;100.00;101829.69;4929799;29;19942;-79
2023/10/15 08:17:17;;;;;;;;;;;;;;;6.35;100.00;101828.91;4914431;29;20434;-79
2023/10/15 08:20:04;;;;;;;;;;;;;;;6.27;100.00;101837.78;4929525;28;19931;-80
2023/10/15 08:22:50;;;;;;;;;;;;;;;6.20;100.00;101835.22;4929346;29;20450;-79
2023/10/15 08:25:36;;;;;;;;;;;;;;;6.15;100.00;101837.00;4929669;29;19941;-79
2023/10/15 08:28:21;;;;;;;;;;;;;;;6.11;100.00;101830.06;4930485;28;19934;-79
2023/10/15 08:31:07;;;;;;;;;;;;;;;6.09;100.00;101835.31;4915722;29;20013;-79
2023/10/15 08:33:53;;;;;;;;;;;;;;;6.09;100.00;101835.31;4928319;29;19946;-79
2023/10/15 08:36:41;;;;;;;;;;;;;;;6.14;100.00;101829.16;4928975;29;19938;-79
2023/10/15 08:39:27;;;;;;;;;;;;;;;6.22;100.00;101835.19;4929703;29;20064;-79
2023/10/15 08:42:13;;;;;;;;;;;;;;;6.32;100.00;101835.97;4929046;29;20539;-79
2023/10/15 08:44:59;;;;;;;;;;;;;;;6.49;100.00;101841.03;4928627;28;19938;-80
2023/10/15 08:47:44;;;;;;;;;;;;;;;6.68;100.00;101836.38;4930408;28;20295;-79
2023/10/15 08:50:30;;;;;;;;;;;;;;;6.84;100.00;101844.94;4914362;29;20365;-79
2023/10/15 08:53:15;;;;;;;;;;;;;;;6.99;100.00;101850.88;4915447;29;19931;-80
2023/10/15 08:56:01;;;;;;;;;;;;;;;7.09;100.00;101868.31;4928760;29;20392;-79
2023/10/15 08:58:52;;;;;;;;;;;;;;;7.17;100.00;101860.28;4912499;29;19953;-79
2023/10/15 09:01:37;;;;;;;;;;;;;;;7.22;100.00;101854.94;4915166;29;19934;-79
2023/10/15 09:04:23;;;;;;;;;;;;;;;7.22;100.00;101858.47;4915977;29;19931;-78
2023/10/15 09:07:09;;;;;;;;;;;;;;;7.19;100.00;101862.00;4927779;29;19930;-79
2023/10/15 09:09:54;;;;;;;;;;;;;;;7.16;100.00;101861.19;4913633;29;19930;-78
2023/10/15 09:12:40;;;;;;;;;;;;;;;7.13;100.00;101867.34;4926936;29;20306;-78
2023/10/15 09:15:29;;;;;;;;;;;;;;;7.16;100.00;101883.13;4927994;29;19934;-79
2023/10/15 09:18:15;;;;;;;;;;;;;;;7.28;100.00;101889.09;4901719;29;19934;-77
2023/10/15 09:21:03;;;;;;;;;;;;;;;7.41;100.00;101871.34;4928326;29;19931;-79
2023/10/15 09:23:49;;;;;;;;;;;;;;;7.49;100.00;101890.53;4914190;29;19930;-78
2023/10/15 09:26:37;;;;;;;;;;;;;;;7.48;100.00;101889.66;4913916;29;19927;-79
2023/10/15 09:29:23;;;;;;;;;;;;;;;7.46;100.00;101895.84;4928457;28;19931;-80
2023/10/15 09:32:08;;;;;;;;;;;;;;;7.45;100.00;101905.53;4928879;29;20047;-80
2023/10/15 09:34:55;;;;;;;;;;;;;;;7.45;100.00;101896.75;4929302;28;19931;-80
2023/10/15 09:37:41;;;;;;;;;;;;;;;7.47;100.00;101906.38;4914340;29;20679;-80
2023/10/15 09:40:31;;;;;;;;;;;;;;;7.60;100.00;101906.19;4929511;28;19934;-79
2023/10/15 09:43:17;;;;;;;;;;;;;;;7.84;100.00;101906.69;4928259;28;19941;-80
2023/10/15 09:46:03;;;;;;;;;;;;;;;8.06;100.00;101922.13;4927924;29;19931;-79
2023/10/15 09:48:49;;;;;;;;;;;;;;;8.11;100.00;101934.34;4928661;28;20080;-81
2023/10/15 09:51:36;;;;;;;;;;;;;;;8.23;100.00;101929.75;4926697;28;19978;-80
2023/10/15 09:54:23;;;;;;;;;;;;;;;8.34;100.00;101954.16;4912592;29;19930;-79
2023/10/15 09:57:08;;;;;;;;;;;;;;;8.28;100.00;101939.31;4928625;29;19937;-79
2023/10/15 09:59:54;;;;;;;;;;;;;;;8.14;100.00;101941.31;4911934;29;19933;-79
2023/10/15 10:02:44;;;;;;;;;;;;;;;7.97;100.00;101945.13;4911908;29;19926;-77
2023/10/15 10:05:44;;;;;;;;;;;;;;;7.84;100.00;101938.31;4913470;29;20709;-81
2023/10/15 10:08:33;;;;;;;;;;;;;;;7.79;100.00;101941.00;4914045;29;19937;-80
2023/10/15 10:11:38;;;;;;;;;;;;;;;7.82;100.00;101951.53;4927817;29;19930;-81
2023/10/15 10:14:43;;;;;;;;;;;;;;;7.98;100.00;101957.41;4928234;29;19926;-79
2023/10/15 10:17:29;;;;;;;;;;;;;;;8.23;100.00;101970.16;4927624;28;19969;-80
2023/10/15 10:20:15;;;;;;;;;;;;;;;8.36;100.00;101978.75;4901724;29;19927;-80
2023/10/15 10:23:04;;;;;;;;;;;;;;;8.42;100.00;101978.66;4928369;28;19931;-79
2023/10/15 10:25:50;;;;;;;;;;;;;;;8.29;100.00;101975.34;4928236;28;20589;-81
2023/10/15 10:28:36;;;;;;;;;;;;;;;8.14;100.00;101983.53;4927720;29;20405;-80
2023/10/15 10:31:21;;;;;;;;;;;;;;;8.02;100.00;101987.25;4910785;29;20050;-80
2023/10/15 10:34:07;;;;;;;;;;;;;;;7.98;100.00;101990.81;4924902;29;19931;-80
2023/10/15 10:36:56;;;;;;;;;;;;;;;7.94;100.00;101989.13;4928017;29;19936;-80
2023/10/15 10:39:43;;;;;;;;;;;;;;;7.94;100.00;101986.47;4926243;28;20085;-80
2023/10/15 10:42:29;;;;;;;;;;;;;;;8.01;100.00;101989.00;4914477;29;19927;-80
2023/10/15 10:45:35;;;;;;;;;;;;;;;8.23;100.00;102007.09;4927373;29;20049;-79
2023/10/15 10:48:24;;;;;;;;;;;;;;;8.48;100.00;102004.03;4926266;29;20412;-79
2023/10/15 10:51:21;;;;;;;;;;;;;;;8.61;100.00;102012.63;4911957;29;19963;-76
2023/10/15 10:54:06;;;;;;;;;;;;;;;8.66;100.00;102017.84;4927990;28;19923;-79
2023/10/15 10:56:52;;;;;;;;;;;;;;;8.64;100.00;102011.72;4930778;28;19979;-80
2023/10/15 10:59:38;;;;;;;;;;;;;;;8.53;100.00;102015.44;4930830;29;20054;-80
2023/10/15 11:02:24;;;;;;;;;;;;;;;8.41;100.00;102020.88;4931237;29;19930;-81
2023/10/15 11:05:11;;;;;;;;;;;;;;;8.31;100.00;102021.94;4930115;29;19954;-79
2023/10/15 11:07:57;;;;;;;;;;;;;;;8.25;100.00;102023.81;4931517;29;19927;-79
2023/10/15 11:10:45;;;;;;;;;;;;;;;8.23;100.00;102025.56;4931733;29;19938;-81
2023/10/15 11:13:31;;;;;;;;;;;;;;;8.24;100.00;102024.66;4916327;29;20678;-81
2023/10/15 11:16:17;;;;;;;;;;;;;;;8.27;100.00;102022.00;4931913;29;20102;-81
2023/10/15 11:19:12;;;;;;;;;;;;;;;8.33;100.00;102030.72;4915862;29;19923;-81
2023/10/15 11:21:58;;;;;;;;;;;;;;;8.42;100.00;102030.53;4929327;29;20332;-81
2023/10/15 11:24:44;;;;;;;;;;;;;;;8.46;100.00;102016.41;4916916;28;19930;-80
2023/10/15 11:27:29;;;;;;;;;;;;;;;8.51;100.00;102025.13;4903713;29;19962;-79
2023/10/15 11:30:15;;;;;;;;;;;;;;;8.54;100.00;102025.09;4915563;29;19938;-81
2023/10/15 11:33:01;;;;;;;;;;;;;;;8.58;100.00;102025.91;4931372;29;20350;-79
2023/10/15 11:35:48;;;;;;;;;;;;;;;8.60;100.00;102024.09;4916047;29;19984;-79
2023/10/15 11:38:33;;;;;;;;;;;;;;;8.64;100.00;102027.53;4916690;28;19930;-80
2023/10/15 11:41:19;;;;;;;;;;;;;;;8.65;100.00;102024.00;4930781;29;19931;-80
2023/10/15 11:44:08;;;;;;;;;;;;;;;8.69;100.00;102020.41;4914845;29;20398;-80
2023/10/15 11:46:54;;;;;;;;;;;;;;;8.77;100.00;102020.28;4930698;28;20001;-83
2023/10/15 11:49:43;;;;;;;;;;;;;;;8.93;100.00;102020.88;4931248;29;20370;-81
2023/10/15 11:52:28;;;;;;;;;;;;;;;9.09;100.00;102040.78;4915818;28;19931;-80
2023/10/15 11:55:19;;;;;;;;;;;;;;;9.12;100.00;102037.22;4929174;29;19930;-81
2023/10/15 11:58:10;;;;;;;;;;;;;;;9.01;100.00;102040.06;4900980;29;20053;-80
2023/10/15 12:00:58;;;;;;;;;;;;;;;8.88;100.00;102049.97;4922432;29;20520;-79
2023/10/15 12:03:43;;;;;;;;;;;;;;;8.77;100.00;102047.53;4929493;29;19931;-81
2023/10/15 12:06:29;;;;;;;;;;;;;;;8.69;100.00;102034.50;4905102;29;19927;-81
2023/10/15 12:09:16;;;;;;;;;;;;;;;8.69;100.00;102041.53;4916402;29;19927;-82
2023/10/15 12:12:02;;;;;;;;;;;;;;;8.76;100.00;102044.97;4912564;29;19931;-81
2023/10/15 12:14:50;;;;;;;;;;;;;;;8.86;100.00;102045.63;4929677;29;20424;-79
2023/10/15 12:17:36;;;;;;;;;;;;;;;8.92;100.00;102038.47;4928345;29;20072;-79
2023/10/15 12:20:24;;;;;;;;;;;;;;;9.00;100.00;102048.91;4914604;29;19990;-81
2023/10/15 12:23:13;;;;;;;;;;;;;;;9.08;100.00;102048.72;4929003;29;20398;-81
2023/10/15 12:26:00;;;;;;;;;;;;;;;9.17;100.00;102051.19;4928619;29;20797;-79
2023/10/15 12:28:47;;;;;;;;;;;;;;;9.30;100.00;102049.16;4915753;29;20498;-81
2023/10/15 12:31:32;;;;;;;;;;;;;;;9.36;100.00;102056.09;4915640;29;19930;-81
2023/10/15 12:34:20;;;;;;;;;;;;;;;9.35;100.00;102060.53;4929985;28;19974;-81
2023/10/15 12:37:07;;;;;;;;;;;;;;;9.35;100.00;102075.50;4928384;29;20358;-79
2023/10/15 12:39:53;;;;;;;;;;;;;;;9.32;100.00;102071.13;4929729;29;19934;-80
2023/10/15 12:42:39;;;;;;;;;;;;;;;9.26;100.00;102081.84;4913584;29;19927;-79
2023/10/15 12:45:24;;;;;;;;;;;;;;;9.15;100.00;102081.19;4913434;29;19927;-79
2023/10/15 12:48:10;;;;;;;;;;;;;;;9.05;100.00;102068.16;4914020;28;19939;-83
2023/10/15 12:50:56;;;;;;;;;;;;;;;9.06;100.00;102071.66;4929927;28;19934;-82
2023/10/15 12:53:42;;;;;;;;;;;;;;;9.06;100.00;102064.59;4915074;29;19945;-83
2023/10/15 12:56:30;;;;;;;;;;;;;;;9.08;100.00;102068.09;4929483;28;19969;-83
2023/10/15 12:59:16;;;;;;;;;;;;;;;9.14;100.00;102067.09;4927185;29;19934;-83
2023/10/15 13:02:02;;;;;;;;;;;;;;;9.18;100.00;102079.38;4928484;29;19937;-83
2023/10/15 13:04:49;;;;;;;;;;;;;;;9.26;100.00;102081.84;4929037;29;19927;-81
2023/10/15 13:07:35;;;;;;;;;;;;;;;9.35;100.00;102086.06;4929733;28;19937;-81
2023/10/15 13:10:20;;;;;;;;;;;;;;;9.50;100.00;102111.31;4926867;28;19959;-77
2023/10/15 13:13:09;;;;;;;;;;;;;;;9.57;100.00;102098.84;4895852;29;20057;-81
2023/10/15 13:15:55;;;;;;;;;;;;;;;9.54;100.00;102107.72;4915413;28;20022;-80
2023/10/15 13:18:41;;;;;;;;;;;;;;;9.45;100.00;102113.19;4928062;28;20382;-78
2023/10/15 13:21:29;;;;;;;;;;;;;;;9.37;100.00;102132.72;4926963;29;19934;-81
2023/10/15 13:24:15;;;;;;;;;;;;;;;9.28;100.00;102146.13;4928151;29;20385;-77
2023/10/15 13:27:03;;;;;;;;;;;;;;;8.80;100.00;102137.28;4927944;29;19966;-77
2023/10/15 13:29:49;;;;;;;;;;;;;;;8.27;100.00;102111.72;4928607;28;19933;-78
2023/10/15 13:32:34;;;;;;;;;;;;;;;7.94;100.00;102100.75;4927378;29;19927;-79
2023/10/15 13:35:23;;;;;;;;;;;;;;;7.76;100.00;102109.81;4912048;29;19931;-78
2023/10/15 13:38:09;;;;;;;;;;;;;;;7.68;100.00;102107.25;4930061;28;20014;-78
2023/10/15 13:40:54;;;;;;;;;;;;;;;7.64;100.00;102120.50;4912539;29;19930;-79
2023/10/15 13:43:40;;;;;;;;;;;;;;;7.65;100.00;102112.59;4925951;29;19938;-79
2023/10/15 13:46:26;;;;;;;;;;;;;;;7.70;100.00;102113.41;4926616;29;19942;-79
2023/10/15 13:49:12;;;;;;;;;;;;;;;7.74;100.00;102117.72;4926875;29;20037;-79
2023/10/15 13:51:58;;;;;;;;;;;;;;;7.77;100.00;102122.09;4902179;29;19936;-78
2023/10/15 13:54:43;;;;;;;;;;;;;;;7.78;100.00;102120.34;4926838;29;19927;-79
2023/10/15 13:57:29;;;;;;;;;;;;;;;7.82;100.00;102129.94;4926325;29;20435;-79
2023/10/15 14:00:19;;;;;;;;;;;;;;;7.86;100.00;102126.38;4928011;29;20408;-79
2023/10/15 14:03:05;;;;;;;;;;;;;;;7.97;100.00;102131.50;4913530;29;19927;-79
2023/10/15 14:05:52;;;;;;;;;;;;;;;8.13;100.00;102151.47;4927788;29;19927;-76
2023/10/15 14:08:38;;;;;;;;;;;;;;;8.25;100.00;102168.91;4926911;29;19926;-79
2023/10/15 14:11:24;;;;;;;;;;;;;;;8.18;100.00;102164.63;4913346;28;19934;-78
2023/10/15 14:14:12;;;;;;;;;;;;;;;7.99;100.00;102175.41;4926302;29;19935;-78
2023/10/15 14:16:58;;;;;;;;;;;;;;;7.87;100.00;102170.31;4912452;29;20017;-78
2023/10/15 14:19:55;;;;;;;;;;;;;;;7.82;100.00;102169.47;4926805;28;19934;-79
2023/10/15 14:22:40;;;;;;;;;;;;;;;7.81;100.00;102165.09;4927218;28;19934;-79
2023/10/15 14:25:26;;;;;;;;;;;;;;;7.82;100.00;102158.94;4912992;29;19930;-79
2023/10/15 14:28:12;;;;;;;;;;;;;;;7.82;100.00;102159.81;4926306;29;20361;-78
2023/10/15 14:30:57;;;;;;;;;;;;;;;7.86;100.00;102153.59;4917325;29;20291;-79